sensor_id;sensor_type;location;lat;lon;timestamp;temperature;humidity
1994;DHT22;998;49.906;10.908;2024-03-22T00:02:24;9.20;99.90
1994;DHT22;998;49.906;10.908;2024-03-22T00:04:51;9.20;99.90
1994;DHT22;998;49.906;10.908;2024-03-22T00:12:12;9.30;99.90
1994;DHT22;998;49.906;10.908;2024-03-22T00:14:39;9.40;99.90
1994;DHT22;998;49.906;10.908;2024-03-22T00:17:05;9.30;99.90
1994;DHT22;998;49.906;10.908;2024-03-22T00:19:35;9.30;99.90
1994;DHT22;998;49.906;10.908;2024-03-22T00:22:01;9.30;99.90
1994;DHT22;998;49.906;10.908;2024-03-22T00:24:28;9.30;99.90
1994;DHT22;998;49.906;10.908;2024-03-22T00:26:55;9.40;99.90
1994;DHT22;998;49.906;10.908;2024-03-22T00:29:22;9.40;99.90
1994;DHT22;998;49.906;10.908;2024-03-22T00:31:48;9.40;99.90
1994;DHT22;998;49.906;10.908;2024-03-22T00:34:16;9.40;99.90
1994;DHT22;998;49.906;10.908;2024-03-22T00:36:44;9.40;99.90
1994;DHT22;998;49.906;10.908;2024-03-22T00:39:11;9.30;99.90
1994;DHT22;998;49.906;10.908;2024-03-22T00:41:38;9.30;99.90
1994;DHT22;998;49.906;10.908;2024-03-22T00:44:06;9.30;99.90
1994;DHT22;998;49.906;10.908;2024-03-22T00:46:32;9.20;99.90
1994;DHT22;998;49.906;10.908;2024-03-22T00:48:59;9.30;99.90
1994;DHT22;998;49.906;10.908;2024-03-22T00:51:26;9.30;99.90
1994;DHT22;998;49.906;10.908;2024-03-22T00:53:54;9.20;99.90
1994;DHT22;998;49.906;10.908;2024-03-22T00:56:21;9.30;99.90
1994;DHT22;998;49.906;10.908;2024-03-22T00:58:48;9.30;99.90
1994;DHT22;998;49.906;10.908;2024-03-22T01:01:14;9.20;99.90
1994;DHT22;998;49.906;10.908;2024-03-22T01:03:42;9.10;99.90
1994;DHT22;998;49.906;10.908;2024-03-22T01:06:08;9.10;99.90
1994;DHT22;998;49.906;10.908;2024-03-22T01:08:35;9.20;99.90
1994;DHT22;998;49.906;10.908;2024-03-22T01:11:03;9.20;99.90
1994;DHT22;998;49.906;10.908;2024-03-22T01:13:31;9.20;99.90
1994;DHT22;998;49.906;10.908;2024-03-22T01:15:57;9.20;99.90
1994;DHT22;998;49.906;10.908;2024-03-22T01:18:24;9.10;99.90
1994;DHT22;998;49.906;10.908;2024-03-22T01:20:51;9.00;99.90
1994;DHT22;998;49.906;10.908;2024-03-22T01:23:18;9.00;99.90
1994;DHT22;998;49.906;10.908;2024-03-22T01:25:45;8.90;99.90
1994;DHT22;998;49.906;10.908;2024-03-22T01:28:13;8.90;99.90
1994;DHT22;998;49.906;10.908;2024-03-22T01:30:42;8.80;99.90
1994;DHT22;998;49.906;10.908;2024-03-22T01:33:08;8.70;99.90
1994;DHT22;998;49.906;10.908;2024-03-22T01:35:35;8.70;99.90
1994;DHT22;998;49.906;10.908;2024-03-22T01:38:01;8.60;99.90
1994;DHT22;998;49.906;10.908;2024-03-22T01:40:29;8.60;99.90
1994;DHT22;998;49.906;10.908;2024-03-22T01:42:56;8.50;99.90
1994;DHT22;998;49.906;10.908;2024-03-22T01:45:24;8.50;99.90
1994;DHT22;998;49.906;10.908;2024-03-22T01:47:51;8.50;99.90
1994;DHT22;998;49.906;10.908;2024-03-22T01:50:20;8.50;99.90
1994;DHT22;998;49.906;10.908;2024-03-22T01:52:46;8.40;99.90
1994;DHT22;998;49.906;10.908;2024-03-22T01:55:15;8.40;99.90
1994;DHT22;998;49.906;10.908;2024-03-22T01:57:42;8.40;99.90
1994;DHT22;998;49.906;10.908;2024-03-22T02:00:10;8.40;99.90
1994;DHT22;998;49.906;10.908;2024-03-22T02:02:38;8.30;99.90
1994;DHT22;998;49.906;10.908;2024-03-22T02:05:12;8.30;99.90
1994;DHT22;998;49.906;10.908;2024-03-22T02:07:38;8.30;99.90
1994;DHT22;998;49.906;10.908;2024-03-22T02:10:07;8.20;99.90
1994;DHT22;998;49.906;10.908;2024-03-22T02:12:33;8.30;99.90
1994;DHT22;998;49.906;10.908;2024-03-22T02:15:02;8.20;99.90
1994;DHT22;998;49.906;10.908;2024-03-22T02:17:28;8.30;99.90
1994;DHT22;998;49.906;10.908;2024-03-22T02:19:57;8.30;99.90
1994;DHT22;998;49.906;10.908;2024-03-22T02:22:23;8.20;99.90
1994;DHT22;998;49.906;10.908;2024-03-22T02:24:52;8.20;99.90
1994;DHT22;998;49.906;10.908;2024-03-22T02:27:19;8.10;99.90
1994;DHT22;998;49.906;10.908;2024-03-22T02:29:46;8.10;99.90
1994;DHT22;998;49.906;10.908;2024-03-22T02:32:12;8.20;99.90
1994;DHT22;998;49.906;10.908;2024-03-22T02:34:40;8.20;99.90
1994;DHT22;998;49.906;10.908;2024-03-22T02:37:06;8.20;99.90
1994;DHT22;998;49.906;10.908;2024-03-22T02:39:34;8.20;99.90
1994;DHT22;998;49.906;10.908;2024-03-22T02:42:01;8.10;99.90
1994;DHT22;998;49.906;10.908;2024-03-22T02:44:29;8.10;99.90
1994;DHT22;998;49.906;10.908;2024-03-22T02:46:55;8.10;99.90
1994;DHT22;998;49.906;10.908;2024-03-22T02:49:22;8.10;99.90
1994;DHT22;998;49.906;10.908;2024-03-22T02:51:49;8.00;99.90
1994;DHT22;998;49.906;10.908;2024-03-22T02:54:16;8.00;99.90
1994;DHT22;998;49.906;10.908;2024-03-22T02:56:42;8.10;99.90
1994;DHT22;998;49.906;10.908;2024-03-22T02:59:11;8.00;99.90
1994;DHT22;998;49.906;10.908;2024-03-22T03:01:38;8.00;99.90
1994;DHT22;998;49.906;10.908;2024-03-22T03:04:05;7.90;99.90
1994;DHT22;998;49.906;10.908;2024-03-22T03:06:31;7.90;99.90
1994;DHT22;998;49.906;10.908;2024-03-22T03:08:58;7.90;99.90
1994;DHT22;998;49.906;10.908;2024-03-22T03:11:24;7.80;99.90
1994;DHT22;998;49.906;10.908;2024-03-22T03:13:52;7.80;99.90
1994;DHT22;998;49.906;10.908;2024-03-22T03:16:19;7.80;99.90
1994;DHT22;998;49.906;10.908;2024-03-22T03:18:47;7.80;99.90
1994;DHT22;998;49.906;10.908;2024-03-22T03:21:13;7.80;99.90
1994;DHT22;998;49.906;10.908;2024-03-22T03:23:40;7.80;99.90
1994;DHT22;998;49.906;10.908;2024-03-22T03:26:07;7.80;99.90
1994;DHT22;998;49.906;10.908;2024-03-22T03:28:34;7.90;99.90
1994;DHT22;998;49.906;10.908;2024-03-22T03:31:00;7.80;99.90
1994;DHT22;998;49.906;10.908;2024-03-22T03:33:29;7.80;99.90
1994;DHT22;998;49.906;10.908;2024-03-22T03:35:55;7.80;99.90
1994;DHT22;998;49.906;10.908;2024-03-22T03:38:23;7.70;99.90
1994;DHT22;998;49.906;10.908;2024-03-22T03:40:49;7.70;99.90
1994;DHT22;998;49.906;10.908;2024-03-22T03:43:16;7.70;99.90
1994;DHT22;998;49.906;10.908;2024-03-22T03:45:43;7.70;99.90
1994;DHT22;998;49.906;10.908;2024-03-22T03:48:10;7.70;99.90
1994;DHT22;998;49.906;10.908;2024-03-22T03:50:38;7.70;99.90
1994;DHT22;998;49.906;10.908;2024-03-22T03:53:05;7.70;99.90
1994;DHT22;998;49.906;10.908;2024-03-22T03:55:31;7.60;99.90
1994;DHT22;998;49.906;10.908;2024-03-22T03:57:59;7.60;99.90
1994;DHT22;998;49.906;10.908;2024-03-22T04:00:25;7.60;99.90
1994;DHT22;998;49.906;10.908;2024-03-22T04:02:53;7.60;99.90
1994;DHT22;998;49.906;10.908;2024-03-22T04:05:19;7.60;99.90
1994;DHT22;998;49.906;10.908;2024-03-22T04:07:49;7.60;99.90
1994;DHT22;998;49.906;10.908;2024-03-22T04:10:15;7.50;99.90
1994;DHT22;998;49.906;10.908;2024-03-22T04:12:44;7.50;99.90
1994;DHT22;998;49.906;10.908;2024-03-22T04:15:10;7.50;99.90
1994;DHT22;998;49.906;10.908;2024-03-22T04:17:37;7.50;99.90
1994;DHT22;998;49.906;10.908;2024-03-22T04:20:04;7.40;99.90
1994;DHT22;998;49.906;10.908;2024-03-22T04:22:32;7.30;99.90
1994;DHT22;998;49.906;10.908;2024-03-22T04:25:00;7.30;99.90
1994;DHT22;998;49.906;10.908;2024-03-22T04:27:28;7.30;99.90
1994;DHT22;998;49.906;10.908;2024-03-22T04:29:54;7.40;99.90
1994;DHT22;998;49.906;10.908;2024-03-22T04:32:21;7.20;99.90
1994;DHT22;998;49.906;10.908;2024-03-22T04:34:47;7.20;99.90
1994;DHT22;998;49.906;10.908;2024-03-22T04:37:15;7.20;99.90
1994;DHT22;998;49.906;10.908;2024-03-22T04:39:42;7.10;99.90
1994;DHT22;998;49.906;10.908;2024-03-22T04:42:14;7.00;99.90
1994;DHT22;998;49.906;10.908;2024-03-22T04:44:42;6.90;99.90
1994;DHT22;998;49.906;10.908;2024-03-22T04:47:09;6.80;99.90
1994;DHT22;998;49.906;10.908;2024-03-22T04:49:36;6.70;99.90
1994;DHT22;998;49.906;10.908;2024-03-22T04:52:03;6.60;99.90
1994;DHT22;998;49.906;10.908;2024-03-22T04:54:31;6.70;99.90
1994;DHT22;998;49.906;10.908;2024-03-22T04:56:57;6.70;99.90
1994;DHT22;998;49.906;10.908;2024-03-22T04:59:26;6.70;99.90
1994;DHT22;998;49.906;10.908;2024-03-22T05:01:52;6.80;99.90
1994;DHT22;998;49.906;10.908;2024-03-22T05:04:20;6.80;99.90
1994;DHT22;998;49.906;10.908;2024-03-22T05:06:46;6.80;99.90
1994;DHT22;998;49.906;10.908;2024-03-22T05:09:14;6.70;99.90
1994;DHT22;998;49.906;10.908;2024-03-22T05:11:40;6.40;99.90
1994;DHT22;998;49.906;10.908;2024-03-22T05:14:07;6.40;99.90
1994;DHT22;998;49.906;10.908;2024-03-22T05:16:35;6.30;99.90
1994;DHT22;998;49.906;10.908;2024-03-22T05:19:03;6.30;99.90
1994;DHT22;998;49.906;10.908;2024-03-22T05:21:29;6.20;99.90
1994;DHT22;998;49.906;10.908;2024-03-22T05:23:56;6.20;99.90
1994;DHT22;998;49.906;10.908;2024-03-22T05:26:22;6.10;99.90
1994;DHT22;998;49.906;10.908;2024-03-22T05:28:50;6.10;99.90
1994;DHT22;998;49.906;10.908;2024-03-22T05:31:16;6.80;99.90
1994;DHT22;998;49.906;10.908;2024-03-22T05:33:45;6.40;99.90
1994;DHT22;998;49.906;10.908;2024-03-22T05:36:12;6.50;99.90
1994;DHT22;998;49.906;10.908;2024-03-22T05:38:40;6.60;99.90
1994;DHT22;998;49.906;10.908;2024-03-22T05:41:06;6.50;99.90
1994;DHT22;998;49.906;10.908;2024-03-22T05:43:34;6.40;99.90
1994;DHT22;998;49.906;10.908;2024-03-22T05:46:00;6.50;99.90
1994;DHT22;998;49.906;10.908;2024-03-22T05:48:27;6.40;99.90
1994;DHT22;998;49.906;10.908;2024-03-22T05:50:55;6.30;99.90
1994;DHT22;998;49.906;10.908;2024-03-22T05:53:23;6.20;99.90
1994;DHT22;998;49.906;10.908;2024-03-22T05:55:49;6.20;99.90
1994;DHT22;998;49.906;10.908;2024-03-22T05:58:16;6.10;99.90
1994;DHT22;998;49.906;10.908;2024-03-22T06:00:43;6.10;99.90
1994;DHT22;998;49.906;10.908;2024-03-22T06:03:11;6.10;99.90
1994;DHT22;998;49.906;10.908;2024-03-22T06:05:37;6.10;99.90
1994;DHT22;998;49.906;10.908;2024-03-22T06:08:06;6.10;99.90
1994;DHT22;998;49.906;10.908;2024-03-22T06:10:34;6.10;99.90
1994;DHT22;998;49.906;10.908;2024-03-22T06:13:00;6.00;99.90
1994;DHT22;998;49.906;10.908;2024-03-22T06:15:28;5.90;99.90
1994;DHT22;998;49.906;10.908;2024-03-22T06:17:55;5.90;99.90
1994;DHT22;998;49.906;10.908;2024-03-22T06:20:22;6.00;99.90
1994;DHT22;998;49.906;10.908;2024-03-22T06:22:48;6.10;99.90
1994;DHT22;998;49.906;10.908;2024-03-22T06:25:17;6.00;99.90
1994;DHT22;998;49.906;10.908;2024-03-22T06:27:43;6.20;99.90
1994;DHT22;998;49.906;10.908;2024-03-22T06:30:11;6.00;99.90
1994;DHT22;998;49.906;10.908;2024-03-22T06:32:38;6.00;99.90
1994;DHT22;998;49.906;10.908;2024-03-22T06:35:05;6.10;99.90
1994;DHT22;998;49.906;10.908;2024-03-22T06:37:32;6.20;99.90
1994;DHT22;998;49.906;10.908;2024-03-22T06:39:59;6.20;99.90
1994;DHT22;998;49.906;10.908;2024-03-22T06:42:27;6.20;99.90
1994;DHT22;998;49.906;10.908;2024-03-22T06:44:54;6.30;99.90
1994;DHT22;998;49.906;10.908;2024-03-22T06:47:20;6.40;99.90
1994;DHT22;998;49.906;10.908;2024-03-22T06:49:49;6.50;99.90
1994;DHT22;998;49.906;10.908;2024-03-22T06:52:15;6.60;99.90
1994;DHT22;998;49.906;10.908;2024-03-22T06:54:44;6.70;99.90
1994;DHT22;998;49.906;10.908;2024-03-22T06:57:10;6.90;99.90
1994;DHT22;998;49.906;10.908;2024-03-22T06:59:39;6.90;99.90
1994;DHT22;998;49.906;10.908;2024-03-22T07:02:05;6.90;99.90
1994;DHT22;998;49.906;10.908;2024-03-22T07:04:35;7.00;99.90
1994;DHT22;998;49.906;10.908;2024-03-22T07:07:01;7.10;99.90
1994;DHT22;998;49.906;10.908;2024-03-22T07:09:29;7.10;99.90
1994;DHT22;998;49.906;10.908;2024-03-22T07:11:56;7.10;99.90
1994;DHT22;998;49.906;10.908;2024-03-22T07:14:24;7.10;99.90
1994;DHT22;998;49.906;10.908;2024-03-22T07:16:52;7.30;99.90
1994;DHT22;998;49.906;10.908;2024-03-22T07:19:20;7.30;99.90
1994;DHT22;998;49.906;10.908;2024-03-22T07:21:46;7.30;99.90
1994;DHT22;998;49.906;10.908;2024-03-22T07:24:14;7.20;99.90
1994;DHT22;998;49.906;10.908;2024-03-22T07:26:40;7.20;99.90
1994;DHT22;998;49.906;10.908;2024-03-22T07:29:08;7.30;99.90
1994;DHT22;998;49.906;10.908;2024-03-22T07:31:34;7.30;99.90
1994;DHT22;998;49.906;10.908;2024-03-22T07:34:03;7.30;99.90
1994;DHT22;998;49.906;10.908;2024-03-22T07:36:31;7.30;99.90
1994;DHT22;998;49.906;10.908;2024-03-22T07:38:58;7.40;99.90
1994;DHT22;998;49.906;10.908;2024-03-22T07:41:24;7.50;99.90
1994;DHT22;998;49.906;10.908;2024-03-22T07:43:52;7.50;99.90
1994;DHT22;998;49.906;10.908;2024-03-22T07:46:18;7.60;99.90
1994;DHT22;998;49.906;10.908;2024-03-22T07:48:45;7.60;99.90
1994;DHT22;998;49.906;10.908;2024-03-22T07:51:13;7.70;99.90
1994;DHT22;998;49.906;10.908;2024-03-22T07:53:40;7.60;99.90
1994;DHT22;998;49.906;10.908;2024-03-22T07:56:06;7.50;99.90
1994;DHT22;998;49.906;10.908;2024-03-22T07:58:34;7.70;99.90
1994;DHT22;998;49.906;10.908;2024-03-22T08:01:00;7.70;99.90
1994;DHT22;998;49.906;10.908;2024-03-22T08:03:28;8.10;99.90
1994;DHT22;998;49.906;10.908;2024-03-22T08:05:54;7.50;99.90
1994;DHT22;998;49.906;10.908;2024-03-22T08:08:23;7.30;99.90
1994;DHT22;998;49.906;10.908;2024-03-22T08:10:51;8.10;99.90
1994;DHT22;998;49.906;10.908;2024-03-22T08:13:18;8.30;99.90
1994;DHT22;998;49.906;10.908;2024-03-22T08:15:44;8.40;99.90
1994;DHT22;998;49.906;10.908;2024-03-22T08:18:12;8.20;99.90
1994;DHT22;998;49.906;10.908;2024-03-22T08:20:39;8.10;99.90
1994;DHT22;998;49.906;10.908;2024-03-22T08:23:06;8.00;99.90
1994;DHT22;998;49.906;10.908;2024-03-22T08:25:34;8.30;99.90
1994;DHT22;998;49.906;10.908;2024-03-22T08:28:02;8.20;99.90
1994;DHT22;998;49.906;10.908;2024-03-22T08:32:56;6.70;99.90
1994;DHT22;998;49.906;10.908;2024-03-22T08:37:50;8.70;99.90
1994;DHT22;998;49.906;10.908;2024-03-22T08:40:16;9.20;99.90
1994;DHT22;998;49.906;10.908;2024-03-22T08:42:45;9.30;99.90
1994;DHT22;998;49.906;10.908;2024-03-22T08:50:06;9.20;99.90
1994;DHT22;998;49.906;10.908;2024-03-22T08:52:34;9.30;99.90
1994;DHT22;998;49.906;10.908;2024-03-22T08:55:01;9.40;99.90
1994;DHT22;998;49.906;10.908;2024-03-22T08:57:30;9.60;99.90
1994;DHT22;998;49.906;10.908;2024-03-22T08:59:58;9.70;99.90
1994;DHT22;998;49.906;10.908;2024-03-22T09:02:25;9.80;99.90
1994;DHT22;998;49.906;10.908;2024-03-22T09:04:52;9.90;99.90
1994;DHT22;998;49.906;10.908;2024-03-22T09:07:20;10.00;99.90
1994;DHT22;998;49.906;10.908;2024-03-22T09:09:46;10.10;99.90
1994;DHT22;998;49.906;10.908;2024-03-22T09:12:14;10.90;99.90
1994;DHT22;998;49.906;10.908;2024-03-22T09:14:40;10.30;99.90
1994;DHT22;998;49.906;10.908;2024-03-22T09:17:09;10.40;99.90
1994;DHT22;998;49.906;10.908;2024-03-22T09:19:35;10.40;99.90
1994;DHT22;998;49.906;10.908;2024-03-22T09:22:03;10.50;99.90
1994;DHT22;998;49.906;10.908;2024-03-22T09:24:29;10.60;99.90
1994;DHT22;998;49.906;10.908;2024-03-22T09:26:57;10.60;99.90
1994;DHT22;998;49.906;10.908;2024-03-22T09:29:23;10.80;99.90
1994;DHT22;998;49.906;10.908;2024-03-22T09:31:51;10.80;99.90
1994;DHT22;998;49.906;10.908;2024-03-22T09:34:19;10.90;99.90
1994;DHT22;998;49.906;10.908;2024-03-22T09:36:46;11.00;99.90
1994;DHT22;998;49.906;10.908;2024-03-22T09:39:13;11.10;99.90
1994;DHT22;998;49.906;10.908;2024-03-22T09:41:43;11.10;99.90
1994;DHT22;998;49.906;10.908;2024-03-22T09:44:12;11.20;99.90
1994;DHT22;998;49.906;10.908;2024-03-22T09:46:41;11.20;99.90
1994;DHT22;998;49.906;10.908;2024-03-22T09:49:08;11.30;99.90
1994;DHT22;998;49.906;10.908;2024-03-22T09:51:38;11.30;99.90
1994;DHT22;998;49.906;10.908;2024-03-22T09:54:05;11.30;99.90
1994;DHT22;998;49.906;10.908;2024-03-22T09:56:32;11.40;99.90
1994;DHT22;998;49.906;10.908;2024-03-22T09:59:00;11.50;99.90
1994;DHT22;998;49.906;10.908;2024-03-22T10:01:28;11.60;99.90
1994;DHT22;998;49.906;10.908;2024-03-22T10:03:55;11.70;99.90
1994;DHT22;998;49.906;10.908;2024-03-22T10:06:23;11.80;99.90
1994;DHT22;998;49.906;10.908;2024-03-22T10:08:50;11.80;99.90
1994;DHT22;998;49.906;10.908;2024-03-22T10:11:18;11.90;99.90
1994;DHT22;998;49.906;10.908;2024-03-22T10:13:44;12.00;99.90
1994;DHT22;998;49.906;10.908;2024-03-22T10:16:12;12.10;99.90
1994;DHT22;998;49.906;10.908;2024-03-22T10:18:39;12.10;99.90
1994;DHT22;998;49.906;10.908;2024-03-22T10:21:06;12.30;99.90
1994;DHT22;998;49.906;10.908;2024-03-22T10:23:32;12.40;99.90
1994;DHT22;998;49.906;10.908;2024-03-22T10:26:01;12.60;99.90
1994;DHT22;998;49.906;10.908;2024-03-22T10:28:28;12.80;99.90
1994;DHT22;998;49.906;10.908;2024-03-22T10:30:55;13.00;99.90
1994;DHT22;998;49.906;10.908;2024-03-22T10:33:22;13.10;99.90
1994;DHT22;998;49.906;10.908;2024-03-22T10:35:52;13.10;99.90
1994;DHT22;998;49.906;10.908;2024-03-22T10:38:19;13.30;99.90
1994;DHT22;998;49.906;10.908;2024-03-22T10:40:47;13.40;99.90
1994;DHT22;998;49.906;10.908;2024-03-22T10:43:15;13.50;99.90
1994;DHT22;998;49.906;10.908;2024-03-22T10:45:42;13.60;99.90
1994;DHT22;998;49.906;10.908;2024-03-22T10:48:10;13.70;99.90
1994;DHT22;998;49.906;10.908;2024-03-22T10:50:39;13.80;99.90
1994;DHT22;998;49.906;10.908;2024-03-22T10:53:09;13.90;99.90
1994;DHT22;998;49.906;10.908;2024-03-22T10:55:42;13.90;99.90
1994;DHT22;998;49.906;10.908;2024-03-22T10:58:16;13.90;99.90
1994;DHT22;998;49.906;10.908;2024-03-22T11:00:44;14.00;99.90
1994;DHT22;998;49.906;10.908;2024-03-22T11:03:12;14.20;99.90
1994;DHT22;998;49.906;10.908;2024-03-22T11:05:45;14.30;99.90
1994;DHT22;998;49.906;10.908;2024-03-22T11:08:11;14.40;99.90
1994;DHT22;998;49.906;10.908;2024-03-22T11:10:39;14.40;99.90
1994;DHT22;998;49.906;10.908;2024-03-22T11:13:07;14.50;99.90
1994;DHT22;998;49.906;10.908;2024-03-22T11:15:37;14.60;99.90
1994;DHT22;998;49.906;10.908;2024-03-22T11:18:03;14.80;99.90
1994;DHT22;998;49.906;10.908;2024-03-22T11:20:30;14.90;99.90
1994;DHT22;998;49.906;10.908;2024-03-22T11:22:57;14.90;99.90
1994;DHT22;998;49.906;10.908;2024-03-22T11:25:24;15.10;99.90
1994;DHT22;998;49.906;10.908;2024-03-22T11:27:51;15.30;99.90
1994;DHT22;998;49.906;10.908;2024-03-22T11:30:20;15.30;99.90
1994;DHT22;998;49.906;10.908;2024-03-22T11:32:48;15.60;99.90
1994;DHT22;998;49.906;10.908;2024-03-22T11:35:15;15.60;99.90
1994;DHT22;998;49.906;10.908;2024-03-22T11:37:42;15.70;99.90
1994;DHT22;998;49.906;10.908;2024-03-22T11:40:10;15.90;99.90
1994;DHT22;998;49.906;10.908;2024-03-22T11:42:37;15.90;99.90
1994;DHT22;998;49.906;10.908;2024-03-22T11:45:06;16.00;99.90
1994;DHT22;998;49.906;10.908;2024-03-22T11:47:33;16.20;99.90
1994;DHT22;998;49.906;10.908;2024-03-22T11:50:03;16.20;99.90
1994;DHT22;998;49.906;10.908;2024-03-22T11:52:29;16.70;99.90
1994;DHT22;998;49.906;10.908;2024-03-22T11:54:57;17.30;99.90
1994;DHT22;998;49.906;10.908;2024-03-22T11:57:23;17.50;99.90
1994;DHT22;998;49.906;10.908;2024-03-22T11:59:51;17.20;99.90
1994;DHT22;998;49.906;10.908;2024-03-22T12:02:17;16.90;99.90
1994;DHT22;998;49.906;10.908;2024-03-22T12:04:46;17.00;99.90
1994;DHT22;998;49.906;10.908;2024-03-22T12:07:16;17.00;99.90
1994;DHT22;998;49.906;10.908;2024-03-22T12:09:43;16.90;99.90
1994;DHT22;998;49.906;10.908;2024-03-22T12:12:11;17.00;99.90
1994;DHT22;998;49.906;10.908;2024-03-22T12:14:39;17.10;99.90
1994;DHT22;998;49.906;10.908;2024-03-22T12:17:05;16.80;99.90
1994;DHT22;998;49.906;10.908;2024-03-22T12:19:33;16.40;99.90
1994;DHT22;998;49.906;10.908;2024-03-22T12:22:00;16.30;99.90
1994;DHT22;998;49.906;10.908;2024-03-22T12:24:28;16.40;99.90
1994;DHT22;998;49.906;10.908;2024-03-22T12:26:55;16.60;99.90
1994;DHT22;998;49.906;10.908;2024-03-22T12:29:22;16.80;99.90
1994;DHT22;998;49.906;10.908;2024-03-22T12:31:49;16.70;99.90
1994;DHT22;998;49.906;10.908;2024-03-22T12:34:17;16.70;99.90
1994;DHT22;998;49.906;10.908;2024-03-22T12:36:43;16.80;99.90
1994;DHT22;998;49.906;10.908;2024-03-22T12:39:11;16.80;99.90
1994;DHT22;998;49.906;10.908;2024-03-22T12:41:39;16.70;99.90
1994;DHT22;998;49.906;10.908;2024-03-22T12:44:07;16.60;99.90
1994;DHT22;998;49.906;10.908;2024-03-22T12:46:33;16.40;99.90
1994;DHT22;998;49.906;10.908;2024-03-22T12:49:00;16.40;99.90
1994;DHT22;998;49.906;10.908;2024-03-22T12:51:27;16.30;99.90
1994;DHT22;998;49.906;10.908;2024-03-22T12:53:54;16.30;99.90
1994;DHT22;998;49.906;10.908;2024-03-22T12:56:21;16.20;99.90
1994;DHT22;998;49.906;10.908;2024-03-22T12:58:51;16.20;99.90
1994;DHT22;998;49.906;10.908;2024-03-22T13:01:17;16.20;99.90
1994;DHT22;998;49.906;10.908;2024-03-22T13:03:44;16.10;99.90
1994;DHT22;998;49.906;10.908;2024-03-22T13:06:11;16.20;99.90
1994;DHT22;998;49.906;10.908;2024-03-22T13:08:38;16.20;99.90
1994;DHT22;998;49.906;10.908;2024-03-22T13:11:05;16.10;99.90
1994;DHT22;998;49.906;10.908;2024-03-22T13:13:34;16.20;99.90
1994;DHT22;998;49.906;10.908;2024-03-22T13:16:02;16.20;99.90
1994;DHT22;998;49.906;10.908;2024-03-22T13:18:30;16.20;99.90
1994;DHT22;998;49.906;10.908;2024-03-22T13:20:56;16.30;99.90
1994;DHT22;998;49.906;10.908;2024-03-22T13:23:24;16.40;99.90
1994;DHT22;998;49.906;10.908;2024-03-22T13:25:50;16.50;99.90
1994;DHT22;998;49.906;10.908;2024-03-22T13:28:18;16.60;99.90
1994;DHT22;998;49.906;10.908;2024-03-22T13:30:48;16.60;99.90
1994;DHT22;998;49.906;10.908;2024-03-22T13:33:17;16.60;99.90
1994;DHT22;998;49.906;10.908;2024-03-22T13:35:45;16.50;99.90
1994;DHT22;998;49.906;10.908;2024-03-22T13:38:12;16.60;99.90
1994;DHT22;998;49.906;10.908;2024-03-22T13:40:40;16.60;99.90
1994;DHT22;998;49.906;10.908;2024-03-22T13:43:07;16.70;99.90
1994;DHT22;998;49.906;10.908;2024-03-22T13:45:39;16.70;99.90
1994;DHT22;998;49.906;10.908;2024-03-22T13:48:10;16.60;99.90
1994;DHT22;998;49.906;10.908;2024-03-22T13:50:39;16.60;99.90
1994;DHT22;998;49.906;10.908;2024-03-22T13:53:06;16.60;99.90
1994;DHT22;998;49.906;10.908;2024-03-22T13:55:33;16.50;99.90
1994;DHT22;998;49.906;10.908;2024-03-22T13:58:00;16.50;99.90
1994;DHT22;998;49.906;10.908;2024-03-22T14:00:27;16.40;99.90
1994;DHT22;998;49.906;10.908;2024-03-22T14:02:54;16.30;99.90
1994;DHT22;998;49.906;10.908;2024-03-22T14:05:22;16.30;99.90
1994;DHT22;998;49.906;10.908;2024-03-22T14:07:52;16.20;99.90
1994;DHT22;998;49.906;10.908;2024-03-22T14:10:18;16.30;99.90
1994;DHT22;998;49.906;10.908;2024-03-22T14:12:46;16.30;99.90
1994;DHT22;998;49.906;10.908;2024-03-22T14:15:13;16.20;99.90
1994;DHT22;998;49.906;10.908;2024-03-22T14:17:40;16.20;99.90
1994;DHT22;998;49.906;10.908;2024-03-22T14:20:07;16.10;99.90
1994;DHT22;998;49.906;10.908;2024-03-22T14:22:38;16.10;99.90
1994;DHT22;998;49.906;10.908;2024-03-22T14:25:07;16.10;99.90
1994;DHT22;998;49.906;10.908;2024-03-22T14:27:36;16.10;99.90
1994;DHT22;998;49.906;10.908;2024-03-22T14:30:04;16.10;99.90
1994;DHT22;998;49.906;10.908;2024-03-22T14:32:35;16.10;99.90
1994;DHT22;998;49.906;10.908;2024-03-22T14:35:02;16.10;99.90
1994;DHT22;998;49.906;10.908;2024-03-22T14:37:29;16.10;99.90
1994;DHT22;998;49.906;10.908;2024-03-22T14:39:55;16.10;99.90
1994;DHT22;998;49.906;10.908;2024-03-22T14:42:23;16.10;99.90
1994;DHT22;998;49.906;10.908;2024-03-22T14:44:49;16.10;99.90
1994;DHT22;998;49.906;10.908;2024-03-22T14:47:16;16.10;99.90
1994;DHT22;998;49.906;10.908;2024-03-22T14:49:43;16.10;99.90
1994;DHT22;998;49.906;10.908;2024-03-22T14:52:10;16.10;99.90
1994;DHT22;998;49.906;10.908;2024-03-22T14:54:36;16.10;99.90
1994;DHT22;998;49.906;10.908;2024-03-22T14:57:04;16.10;99.90
1994;DHT22;998;49.906;10.908;2024-03-22T14:59:32;16.10;99.90
1994;DHT22;998;49.906;10.908;2024-03-22T15:01:59;16.10;99.90
1994;DHT22;998;49.906;10.908;2024-03-22T15:04:25;16.00;99.90
1994;DHT22;998;49.906;10.908;2024-03-22T15:06:54;16.10;99.90
1994;DHT22;998;49.906;10.908;2024-03-22T15:09:20;16.00;99.90
1994;DHT22;998;49.906;10.908;2024-03-22T15:11:50;16.00;99.90
1994;DHT22;998;49.906;10.908;2024-03-22T15:14:17;16.00;99.90
1994;DHT22;998;49.906;10.908;2024-03-22T15:16:45;16.00;99.90
1994;DHT22;998;49.906;10.908;2024-03-22T15:19:12;16.00;99.90
1994;DHT22;998;49.906;10.908;2024-03-22T15:21:39;16.00;99.90
1994;DHT22;998;49.906;10.908;2024-03-22T15:24:07;16.00;99.90
1994;DHT22;998;49.906;10.908;2024-03-22T15:26:33;15.90;99.90
1994;DHT22;998;49.906;10.908;2024-03-22T15:29:01;15.90;99.90
1994;DHT22;998;49.906;10.908;2024-03-22T15:31:28;15.90;99.90
1994;DHT22;998;49.906;10.908;2024-03-22T15:33:56;15.80;99.90
1994;DHT22;998;49.906;10.908;2024-03-22T15:36:23;15.90;99.90
1994;DHT22;998;49.906;10.908;2024-03-22T15:38:50;15.90;99.90
1994;DHT22;998;49.906;10.908;2024-03-22T15:41:16;15.80;99.90
1994;DHT22;998;49.906;10.908;2024-03-22T15:43:45;15.80;99.90
1994;DHT22;998;49.906;10.908;2024-03-22T15:46:11;15.70;99.90
1994;DHT22;998;49.906;10.908;2024-03-22T15:48:39;15.70;99.90
1994;DHT22;998;49.906;10.908;2024-03-22T15:51:06;15.60;99.90
1994;DHT22;998;49.906;10.908;2024-03-22T15:53:33;15.60;99.90
1994;DHT22;998;49.906;10.908;2024-03-22T15:55:59;15.60;99.90
1994;DHT22;998;49.906;10.908;2024-03-22T15:58:26;15.60;99.90
1994;DHT22;998;49.906;10.908;2024-03-22T16:00:52;15.60;99.90
1994;DHT22;998;49.906;10.908;2024-03-22T16:03:18;15.60;99.90
1994;DHT22;998;49.906;10.908;2024-03-22T16:05:49;15.60;99.90
1994;DHT22;998;49.906;10.908;2024-03-22T16:08:18;15.60;99.90
1994;DHT22;998;49.906;10.908;2024-03-22T16:10:44;15.50;99.90
1994;DHT22;998;49.906;10.908;2024-03-22T16:13:12;15.60;99.90
1994;DHT22;998;49.906;10.908;2024-03-22T16:15:39;15.50;99.90
1994;DHT22;998;49.906;10.908;2024-03-22T16:18:06;15.50;99.90
1994;DHT22;998;49.906;10.908;2024-03-22T16:20:33;15.50;99.90
1994;DHT22;998;49.906;10.908;2024-03-22T16:23:00;15.40;99.90
1994;DHT22;998;49.906;10.908;2024-03-22T16:25:34;15.40;99.90